Aeroporto :
LOGIN :

Iscrizione | Disclaimer

   EN    FR    IT 

 










Sommario :    VFR   VFR Marginale   IFR   IFR Intensivo   IFR Molto Intensivo
Visibilità : 
Base nubi : 
>= 8 km
>= 3000ft
5 / 8 km
1000 / 3000 ft
1500m / 5 km
500 / 1000 ft
800 / 1500m
200 / 500 ft
< 800m
< 200 ft
Simboli :   Temporali  Nebbia  Neve Forte  Precipitazioni Forti  Vento > 20 kt
SIGMETs :   Varie  Temporali  Ghiacco  Turbolenza  Onda orograficha  Ceneri Vulcaniche






- Altitudine del aeroporto : 56 ft
- Codice IATA : BZR


LFMU - Beziers / Vias

ULTIMO METAR :
  • 210300Z AUTO 03014KT 9999 OVC037 05/02 Q1034 TEMPO RA BKN008 SCT030TCU

METARs OBSOLETI :
  • 210230Z AUTO 03013KT 9999 BKN035 OVC041 05/02 Q1034
  • 210200Z AUTO 03013KT 9999 SCT033 OVC039 05/02 Q1035
  • 210130Z AUTO 03011KT 9999 -RA OVC030 06/02 Q1035
  • 210100Z AUTO 02011KT 9999 -RADZ BKN033 OVC040 05/02 Q1035
  • 210030Z AUTO 02012KT 9999 -RA FEW031 BKN037 OVC048 05/02 Q1035

TAF TAF LFMU
Valido dal 21 a 03 ore il 22 a 03 ore UTC


210200Z 2103/2203 02010KT 9999 FEW030 BKN040
PROB40
TEMPO 2103/2108 RA BKN008 SCT030TCU
BECMG 2108/2109 05015G25KT
BECMG 2117/2118 06015KT
TEMPO 2121/2203 RA SCT020TCU
ATIS : +33 4 67 90 88 88



MetMap, La meteo Aeronautica in un colpo d'occhio ! - Copyright ORBIFLY Dicembre 2007 - Disclaimer

ORBIFLY MET'MAP TEAM :

Programmazione e sviluppo : Alexandra Zaïnal
Concezione : Baudouin d'Aumeries
Aiuto per la programmazione : Marc-Olivier Méhu
Supporto tecnico e logistico : Manuel Goepfert
Aiuto per la traduzione : Arnaldo La Scala

Contatto : metmap@orbifly.com




FONTI E CREDITI :

   NOAA